Kongen — LCDE — position and weather

sailwx.info

Track history (hours):
 
Tides and Currents Weather Stations Pressure Air Temp Water Temp Dewpoint Dewpoint Depression Visibility Wind Speed Wind Dir Waves Ship Positions

Kongen

Last reported at 2014-Nov-29 05:26 UTC. Time now 2014-Nov-29 06:17 UTC.
Position N 59°55' E 010°44'.

Length 50 m; draft 3.2 m.

Type: Passenger vessel. MMSI: 258509000.

Date/timePositionNaut miles runAvg speedWind from/ knotsBaromVisibWave heightAir tempDewpointWater temp
2014-Nov-29 05:26N 59°55' E 010°44'0 0.0
2014-Nov-29 04:32N 59°55' E 010°44'0 0.0
2014-Nov-29 03:32N 59°55' E 010°44'0 0.1
2014-Nov-29 02:33N 59°55' E 010°44'0 0.1
2014-Nov-29 01:33N 59°55' E 010°44'0 0.0
2014-Nov-29 00:32N 59°55' E 010°44'0 0.0
2014-Nov-28 23:33N 59°55' E 010°44'0 0.0
2014-Nov-28 22:22N 59°55' E 010°44'0 0.0
2014-Nov-28 21:25N 59°55' E 010°44'0 0.0
2014-Nov-28 20:25N 59°55' E 010°44'0 0.0
2014-Nov-28 19:25N 59°55' E 010°44'2 2.5
2014-Nov-28 18:33N 59°53' E 010°41'1 0.4
2014-Nov-28 17:20N 59°53' E 010°40'0 0.4
2014-Nov-28 16:32N 59°52' E 010°40'2 1.8
2014-Nov-28 15:33N 59°54' E 010°42'1 1.2
2014-Nov-28 14:33N 59°55' E 010°44'0 0.0
2014-Nov-28 13:28N 59°55' E 010°44'0 0.0
2014-Nov-28 12:28N 59°55' E 010°44'0 0.0
2014-Nov-28 11:31N 59°55' E 010°44'0 0.0
2014-Nov-28 10:31N 59°55' E 010°44'0 0.0
2014-Nov-28 09:28N 59°55' E 010°44'0 0.0
2014-Nov-28 08:31N 59°55' E 010°44'3 2.7
2014-Nov-28 07:30N 59°53' E 010°40'0 0.2
2014-Nov-28 06:31N 59°53' E 010°40'0 0.1
2014-Nov-28 05:21N 59°52' E 010°40'0 0.2
2014-Nov-28 04:33N 59°53' E 010°40'0 0.3
2014-Nov-28 03:20N 59°52' E 010°39'0 0.0
2014-Nov-28 02:20N 59°52' E 010°39'0 0.0
2014-Nov-28 01:26N 59°52' E 010°39'0 0.0
2014-Nov-28 00:11N 59°52' E 010°39'0 0.0
2014-Nov-27 23:29N 59°52' E 010°39'0 0.0
2014-Nov-27 22:29N 59°52' E 010°39'0 0.0
2014-Nov-27 20:29N 59°52' E 010°39'0 0.0
2014-Nov-27 19:32N 59°52' E 010°39'1 0.5
2014-Nov-27 18:19N 59°53' E 010°40'1 0.7
2014-Nov-27 17:30N 59°52' E 010°39'0 0.0
2014-Nov-27 16:13N 59°52' E 010°39'2 2.7
2014-Nov-27 15:33N 59°54' E 010°42'1 1.4
2014-Nov-27 14:33N 59°55' E 010°44'0 0.0
2014-Nov-27 13:32N 59°55' E 010°44'0 0.0
2014-Nov-27 12:32N 59°55' E 010°44'0 0.0
2014-Nov-27 11:32N 59°55' E 010°44'0 0.0
2014-Nov-27 10:23N 59°55' E 010°44'0 0.0
2014-Nov-27 09:32N 59°55' E 010°44'0 0.0
2014-Nov-27 08:23N 59°55' E 010°44'3 2.8
2014-Nov-27 07:29N 59°53' E 010°40'0 0.2
2014-Nov-27 06:30N 59°53' E 010°40'0 0.2
2014-Nov-27 05:22N 59°53' E 010°40'0 0.3
2014-Nov-27 04:26N 59°52' E 010°39'0 0.0
2014-Nov-26 18:22N 59°52' E 010°40'1 0.8
2014-Nov-26 17:17N 59°53' E 010°40'1 0.8
2014-Nov-26 16:12N 59°52' E 010°40'2 2.9
2014-Nov-26 15:33N 59°54' E 010°42'1 1.2
2014-Nov-26 14:33N 59°55' E 010°44'0 0.0
2014-Nov-26 13:25N 59°55' E 010°44'0 0.0
2014-Nov-26 11:28N 59°55' E 010°44'0 0.0
2014-Nov-26 10:28N 59°55' E 010°44'0 0.0
2014-Nov-26 09:28N 59°55' E 010°44'0 0.0
2014-Nov-26 08:25N 59°55' E 010°44'3 3.5
2014-Nov-26 07:33N 59°53' E 010°40'0 0.4
2014-Nov-26 06:29N 59°53' E 010°40'1 0.6
2014-Nov-26 05:31N 59°52' E 010°40'0 0.1
2014-Nov-26 04:30N 59°52' E 010°39'0 0.0
2014-Nov-26 03:07N 59°52' E 010°39'0 0.0
2014-Nov-26 01:22N 59°52' E 010°39'0 0.0
2014-Nov-26 00:07N 59°52' E 010°39'0 0.0
2014-Nov-25 23:25N 59°52' E 010°39'0 0.0
2014-Nov-25 22:10N 59°52' E 010°39'0 0.0
2014-Nov-25 21:28N 59°52' E 010°39'0 0.1
2014-Nov-25 18:21N 59°53' E 010°40'0 0.4
2014-Nov-25 17:20N 59°53' E 010°40'1 0.6
2014-Nov-25 16:14N 59°52' E 010°39'2 2.9
2014-Nov-25 15:33N 59°54' E 010°42'1 1.2
2014-Nov-25 14:33N 59°55' E 010°44'0 0.0
2014-Nov-25 13:28N 59°55' E 010°44'0 0.0
2014-Nov-25 12:31N 59°55' E 010°44'0 0.0
2014-Nov-25 11:31N 59°55' E 010°44'0 0.0
2014-Nov-25 10:28N 59°55' E 010°44'0 0.0
2014-Nov-25 09:31N 59°55' E 010°44'0 0.0
2014-Nov-25 08:19N 59°55' E 010°44'3 4.1
2014-Nov-25 07:32N 59°52' E 010°40'1 0.7
2014-Nov-25 06:28N 59°53' E 010°40'1 0.8
2014-Nov-25 05:31N 59°52' E 010°39'0 0.0
2014-Nov-25 03:20N 59°52' E 010°39'0 0.0
2014-Nov-25 02:17N 59°52' E 010°39'0 0.0
2014-Nov-24 22:11N 59°52' E 010°39'0 0.1
2014-Nov-24 18:21N 59°53' E 010°40'0 0.4
2014-Nov-24 17:27N 59°52' E 010°39'0 0.0
2014-Nov-24 16:30N 59°52' E 010°39'2 1.8
2014-Nov-24 15:32N 59°54' E 010°42'1 1.5
2014-Nov-24 14:33N 59°55' E 010°44'0 0.0
2014-Nov-24 13:22N 59°55' E 010°44'0 0.0
2014-Nov-24 12:22N 59°55' E 010°44'0 0.0
2014-Nov-24 11:25N 59°55' E 010°44'0 0.0
2014-Nov-24 10:10N 59°55' E 010°44'0 0.0
2014-Nov-24 09:10N 59°55' E 010°44'0 0.0
2014-Nov-24 08:28N 59°55' E 010°44'3 2.7
2014-Nov-24 07:29N 59°53' E 010°40'0 0.2
2014-Nov-24 06:32N 59°53' E 010°40'0 0.2
2014-Nov-24 05:19N 59°53' E 010°40'0 0.4
2014-Nov-24 04:24N 59°53' E 010°40'3 2.9
2014-Nov-24 03:22N 59°55' E 010°44'0 0.0
2014-Nov-24 02:25N 59°55' E 010°44'0 0.0
2014-Nov-24 01:22N 59°55' E 010°44'0 0.0
2014-Nov-24 00:25N 59°55' E 010°44'0 0.0
2014-Nov-23 23:28N 59°55' E 010°44'0 0.0
2014-Nov-23 22:31N 59°55' E 010°44'0 0.0
2014-Nov-23 21:31N 59°55' E 010°44'0 0.0
2014-Nov-23 20:31N 59°55' E 010°44'0 0.0
2014-Nov-23 19:28N 59°55' E 010°44'0 0.0
2014-Nov-23 18:31N 59°55' E 010°44'0 0.0
2014-Nov-23 17:31N 59°55' E 010°44'0 0.0
2014-Nov-23 16:31N 59°55' E 010°44'0 0.0
2014-Nov-23 15:31N 59°55' E 010°44'0 0.0
2014-Nov-23 14:22N 59°55' E 010°44'0 0.0
2014-Nov-23 13:25N 59°55' E 010°44'0 0.0
2014-Nov-23 12:25N 59°55' E 010°44'0 0.0
2014-Nov-23 11:25N 59°55' E 010°44'0 0.0
2014-Nov-23 10:28N 59°55' E 010°44'0 0.0
2014-Nov-23 09:28N 59°55' E 010°44'0 0.0
2014-Nov-23 08:31N 59°55' E 010°44'0 0.0
2014-Nov-23 07:31N 59°55' E 010°44'0 0.0
2014-Nov-23 06:31N 59°55' E 010°44'0 0.0
2014-Nov-23 05:31N 59°55' E 010°44'0 0.0
2014-Nov-23 04:28N 59°55' E 010°44'0 0.0
2014-Nov-23 03:16N 59°55' E 010°44'0 0.0
2014-Nov-23 02:19N 59°55' E 010°44'0 0.0
2014-Nov-23 01:31N 59°55' E 010°44'0 0.0
2014-Nov-23 00:07N 59°55' E 010°44'0 0.0
2014-Nov-22 23:25N 59°55' E 010°44'0 0.0
2014-Nov-22 21:25N 59°55' E 010°44'0 0.0
2014-Nov-22 20:28N 59°55' E 010°44'0 0.0
2014-Nov-22 19:28N 59°55' E 010°44'0 0.0
2014-Nov-22 18:28N 59°55' E 010°44'0 0.0
2014-Nov-22 17:25N 59°55' E 010°44'0 0.0
2014-Nov-22 16:31N 59°55' E 010°44'0 0.0
2014-Nov-22 15:28N 59°55' E 010°44'0 0.0
2014-Nov-22 14:31N 59°55' E 010°44'0 0.0
2014-Nov-22 13:19N 59°55' E 010°44'0 0.0
2014-Nov-22 12:31N 59°55' E 010°44'0 0.0
2014-Nov-22 11:19N 59°55' E 010°44'0 0.0
2014-Nov-22 10:22N 59°55' E 010°44'0 0.0
2014-Nov-22 09:25N 59°55' E 010°44'0 0.0
2014-Nov-22 08:25N 59°55' E 010°44'0 0.0
2014-Nov-22 07:25N 59°55' E 010°44'0 0.0
2014-Nov-22 06:28N 59°55' E 010°44'0 0.0
2014-Nov-22 05:25N 59°55' E 010°44'0 0.0
2014-Nov-22 04:25N 59°55' E 010°44'0 0.0
2014-Nov-22 03:31N 59°55' E 010°44'0 0.0
2014-Nov-22 02:31N 59°55' E 010°44'0 0.0
2014-Nov-22 01:28N 59°55' E 010°44'0 0.0
2014-Nov-22 00:31N 59°55' E 010°44'0 0.0
2014-Nov-21 23:04N 59°55' E 010°44'0 0.0
2014-Nov-21 22:31N 59°55' E 010°44'0 0.0
2014-Nov-21 21:22N 59°55' E 010°44'0 0.0
2014-Nov-21 20:22N 59°55' E 010°44'0 0.0
2014-Nov-21 19:22N 59°55' E 010°44'0 0.0
2014-Nov-21 18:25N 59°55' E 010°44'0 0.0
2014-Nov-21 17:22N 59°55' E 010°44'2 2.6
2014-Nov-21 16:28N 59°53' E 010°40'0 0.1
2014-Nov-21 15:28N 59°53' E 010°40'0 0.3
2014-Nov-21 14:26N 59°53' E 010°41'2 1.8
2014-Nov-21 13:12N 59°55' E 010°44'0 0.0
2014-Nov-21 12:30N 59°55' E 010°44'0 0.0
2014-Nov-21 11:33N 59°55' E 010°44'0 0.1
2014-Nov-21 10:33N 59°55' E 010°44'0 0.0
2014-Nov-21 09:33N 59°54' E 010°44'0 0.0
2014-Nov-21 08:33N 59°55' E 010°44'1 1.1
2014-Nov-21 07:34N 59°54' E 010°42'0 0.1
2014-Nov-21 06:33N 59°54' E 010°42'1 1.3
2014-Nov-21 05:33N 59°55' E 010°44'0 0.0
2014-Nov-21 04:30N 59°55' E 010°44'0 0.0
2014-Nov-21 03:30N 59°55' E 010°44'0 0.0
2014-Nov-21 02:33N 59°55' E 010°44'0 0.0
2014-Nov-21 01:33N 59°55' E 010°44'0 0.0
2014-Nov-21 00:33N 59°55' E 010°44'0 0.0
2014-Nov-20 23:21N 59°55' E 010°44'0 0.0
2014-Nov-20 22:24N 59°55' E 010°44'0 0.0
2014-Nov-20 21:24N 59°55' E 010°44'0 0.0
2014-Nov-20 20:27N 59°55' E 010°44'0 0.0
2014-Nov-20 19:27N 59°55' E 010°44'0 0.0
2014-Nov-20 18:30N 59°55' E 010°44'0 0.1
2014-Nov-20 17:34N 59°54' E 010°44'0 0.1
2014-Nov-20 16:33N 59°55' E 010°44'0 0.0
2014-Nov-20 15:34N 59°55' E 010°44'0 0.1
2014-Nov-20 14:33N 59°55' E 010°44'0 0.0
2014-Nov-20 13:34N 59°55' E 010°44'0 0.0
2014-Nov-20 12:34N 59°54' E 010°44'0 0.0
2014-Nov-20 11:34N 59°55' E 010°44'1 0.6
2014-Nov-20 10:29N 59°54' E 010°43'0 0.0
2014-Nov-20 09:33N 59°54' E 010°43'1 0.6
2014-Nov-20 08:33N 59°55' E 010°44'0 0.1
2014-Nov-20 07:34N 59°55' E 010°44'0 0.0
2014-Nov-20 06:34N 59°55' E 010°44'0 0.0
2014-Nov-20 05:33N 59°55' E 010°44'3 0.2
2014-Nov-19 16:29N 59°53' E 010°40'0 0.1
2014-Nov-19 15:29N 59°53' E 010°40'0 0.2
2014-Nov-19 14:28N 59°53' E 010°40'2 2.7
2014-Nov-19 13:33N 59°55' E 010°44'0 0.0
2014-Nov-19 12:21N 59°55' E 010°44'0 0.0
2014-Nov-19 11:24N 59°55' E 010°44'0 0.2
2014-Nov-19 10:33N 59°54' E 010°44'0 0.1
2014-Nov-19 09:33N 59°55' E 010°44'0 0.1
2014-Nov-19 08:33N 59°54' E 010°44'1 1.2
2014-Nov-19 07:33N 59°54' E 010°42'0 0.0
2014-Nov-19 06:33N 59°54' E 010°42'1 1.2
2014-Nov-19 05:29N 59°55' E 010°44'  
Track history (hours):
 
Tides and Currents Weather Stations Pressure Air Temp Water Temp Dewpoint Dewpoint Depression Visibility Wind Speed Wind Dir Waves Ship Positions

Kongen

Last reported at 2014-Nov-29 05:26 UTC. Time now 2014-Nov-29 06:17 UTC.
Position N 59°55' E 010°44'.

Length 50 m; draft 3.2 m.

Type: Passenger vessel. MMSI: 258509000.

Date/timePositionNaut miles runAvg speedWind from/ knotsBaromVisibWave heightAir tempDewpointWater temp
2014-Nov-29 05:26N 59°55' E 010°44'0 0.0
2014-Nov-29 04:32N 59°55' E 010°44'0 0.0
2014-Nov-29 03:32N 59°55' E 010°44'0 0.1
2014-Nov-29 02:33N 59°55' E 010°44'0 0.1
2014-Nov-29 01:33N 59°55' E 010°44'0 0.0
2014-Nov-29 00:32N 59°55' E 010°44'0 0.0
2014-Nov-28 23:33N 59°55' E 010°44'0 0.0
2014-Nov-28 22:22N 59°55' E 010°44'0 0.0
2014-Nov-28 21:25N 59°55' E 010°44'0 0.0
2014-Nov-28 20:25N 59°55' E 010°44'0 0.0
2014-Nov-28 19:25N 59°55' E 010°44'2 2.5
2014-Nov-28 18:33N 59°53' E 010°41'1 0.4
2014-Nov-28 17:20N 59°53' E 010°40'0 0.4
2014-Nov-28 16:32N 59°52' E 010°40'2 1.8
2014-Nov-28 15:33N 59°54' E 010°42'1 1.2
2014-Nov-28 14:33N 59°55' E 010°44'0 0.0
2014-Nov-28 13:28N 59°55' E 010°44'0 0.0
2014-Nov-28 12:28N 59°55' E 010°44'0 0.0
2014-Nov-28 11:31N 59°55' E 010°44'0 0.0
2014-Nov-28 10:31N 59°55' E 010°44'0 0.0
2014-Nov-28 09:28N 59°55' E 010°44'0 0.0
2014-Nov-28 08:31N 59°55' E 010°44'3 2.7
2014-Nov-28 07:30N 59°53' E 010°40'0 0.2
2014-Nov-28 06:31N 59°53' E 010°40'0 0.1
2014-Nov-28 05:21N 59°52' E 010°40'0 0.2
2014-Nov-28 04:33N 59°53' E 010°40'0 0.3
2014-Nov-28 03:20N 59°52' E 010°39'0 0.0
2014-Nov-28 02:20N 59°52' E 010°39'0 0.0
2014-Nov-28 01:26N 59°52' E 010°39'0 0.0
2014-Nov-28 00:11N 59°52' E 010°39'0 0.0
2014-Nov-27 23:29N 59°52' E 010°39'0 0.0
2014-Nov-27 22:29N 59°52' E 010°39'0 0.0
2014-Nov-27 20:29N 59°52' E 010°39'0 0.0
2014-Nov-27 19:32N 59°52' E 010°39'1 0.5
2014-Nov-27 18:19N 59°53' E 010°40'1 0.7
2014-Nov-27 17:30N 59°52' E 010°39'0 0.0
2014-Nov-27 16:13N 59°52' E 010°39'2 2.7
2014-Nov-27 15:33N 59°54' E 010°42'1 1.4
2014-Nov-27 14:33N 59°55' E 010°44'0 0.0
2014-Nov-27 13:32N 59°55' E 010°44'0 0.0
2014-Nov-27 12:32N 59°55' E 010°44'0 0.0
2014-Nov-27 11:32N 59°55' E 010°44'0 0.0
2014-Nov-27 10:23N 59°55' E 010°44'0 0.0
2014-Nov-27 09:32N 59°55' E 010°44'0 0.0
2014-Nov-27 08:23N 59°55' E 010°44'3 2.8
2014-Nov-27 07:29N 59°53' E 010°40'0 0.2
2014-Nov-27 06:30N 59°53' E 010°40'0 0.2
2014-Nov-27 05:22N 59°53' E 010°40'0 0.3
2014-Nov-27 04:26N 59°52' E 010°39'0 0.0
2014-Nov-26 18:22N 59°52' E 010°40'1 0.8
2014-Nov-26 17:17N 59°53' E 010°40'1 0.8
2014-Nov-26 16:12N 59°52' E 010°40'2 2.9
2014-Nov-26 15:33N 59°54' E 010°42'1 1.2
2014-Nov-26 14:33N 59°55' E 010°44'0 0.0
2014-Nov-26 13:25N 59°55' E 010°44'0 0.0
2014-Nov-26 11:28N 59°55' E 010°44'0 0.0
2014-Nov-26 10:28N 59°55' E 010°44'0 0.0
2014-Nov-26 09:28N 59°55' E 010°44'0 0.0
2014-Nov-26 08:25N 59°55' E 010°44'3 3.5
2014-Nov-26 07:33N 59°53' E 010°40'0 0.4
2014-Nov-26 06:29N 59°53' E 010°40'1 0.6
2014-Nov-26 05:31N 59°52' E 010°40'0 0.1
2014-Nov-26 04:30N 59°52' E 010°39'0 0.0
2014-Nov-26 03:07N 59°52' E 010°39'0 0.0
2014-Nov-26 01:22N 59°52' E 010°39'0 0.0
2014-Nov-26 00:07N 59°52' E 010°39'0 0.0
2014-Nov-25 23:25N 59°52' E 010°39'0 0.0
2014-Nov-25 22:10N 59°52' E 010°39'0 0.0
2014-Nov-25 21:28N 59°52' E 010°39'0 0.1
2014-Nov-25 18:21N 59°53' E 010°40'0 0.4
2014-Nov-25 17:20N 59°53' E 010°40'1 0.6
2014-Nov-25 16:14N 59°52' E 010°39'2 2.9
2014-Nov-25 15:33N 59°54' E 010°42'1 1.2
2014-Nov-25 14:33N 59°55' E 010°44'0 0.0
2014-Nov-25 13:28N 59°55' E 010°44'0 0.0
2014-Nov-25 12:31N 59°55' E 010°44'0 0.0
2014-Nov-25 11:31N 59°55' E 010°44'0 0.0
2014-Nov-25 10:28N 59°55' E 010°44'0 0.0
2014-Nov-25 09:31N 59°55' E 010°44'0 0.0
2014-Nov-25 08:19N 59°55' E 010°44'3 4.1
2014-Nov-25 07:32N 59°52' E 010°40'1 0.7
2014-Nov-25 06:28N 59°53' E 010°40'1 0.8
2014-Nov-25 05:31N 59°52' E 010°39'0 0.0
2014-Nov-25 03:20N 59°52' E 010°39'0 0.0
2014-Nov-25 02:17N 59°52' E 010°39'0 0.0
2014-Nov-24 22:11N 59°52' E 010°39'0 0.1
2014-Nov-24 18:21N 59°53' E 010°40'0 0.4
2014-Nov-24 17:27N 59°52' E 010°39'0 0.0
2014-Nov-24 16:30N 59°52' E 010°39'2 1.8
2014-Nov-24 15:32N 59°54' E 010°42'1 1.5
2014-Nov-24 14:33N 59°55' E 010°44'0 0.0
2014-Nov-24 13:22N 59°55' E 010°44'0 0.0
2014-Nov-24 12:22N 59°55' E 010°44'0 0.0
2014-Nov-24 11:25N 59°55' E 010°44'0 0.0
2014-Nov-24 10:10N 59°55' E 010°44'0 0.0
2014-Nov-24 09:10N 59°55' E 010°44'0 0.0
2014-Nov-24 08:28N 59°55' E 010°44'3 2.7
2014-Nov-24 07:29N 59°53' E 010°40'0 0.2
2014-Nov-24 06:32N 59°53' E 010°40'0 0.2
2014-Nov-24 05:19N 59°53' E 010°40'0 0.4
2014-Nov-24 04:24N 59°53' E 010°40'3 2.9
2014-Nov-24 03:22N 59°55' E 010°44'0 0.0
2014-Nov-24 02:25N 59°55' E 010°44'0 0.0
2014-Nov-24 01:22N 59°55' E 010°44'0 0.0
2014-Nov-24 00:25N 59°55' E 010°44'0 0.0
2014-Nov-23 23:28N 59°55' E 010°44'0 0.0
2014-Nov-23 22:31N 59°55' E 010°44'0 0.0
2014-Nov-23 21:31N 59°55' E 010°44'0 0.0
2014-Nov-23 20:31N 59°55' E 010°44'0 0.0
2014-Nov-23 19:28N 59°55' E 010°44'0 0.0
2014-Nov-23 18:31N 59°55' E 010°44'0 0.0
2014-Nov-23 17:31N 59°55' E 010°44'0 0.0
2014-Nov-23 16:31N 59°55' E 010°44'0 0.0
2014-Nov-23 15:31N 59°55' E 010°44'0 0.0
2014-Nov-23 14:22N 59°55' E 010°44'0 0.0
2014-Nov-23 13:25N 59°55' E 010°44'0 0.0
2014-Nov-23 12:25N 59°55' E 010°44'0 0.0
2014-Nov-23 11:25N 59°55' E 010°44'0 0.0
2014-Nov-23 10:28N 59°55' E 010°44'0 0.0
2014-Nov-23 09:28N 59°55' E 010°44'0 0.0
2014-Nov-23 08:31N 59°55' E 010°44'0 0.0
2014-Nov-23 07:31N 59°55' E 010°44'0 0.0
2014-Nov-23 06:31N 59°55' E 010°44'0 0.0
2014-Nov-23 05:31N 59°55' E 010°44'0 0.0
2014-Nov-23 04:28N 59°55' E 010°44'0 0.0
2014-Nov-23 03:16N 59°55' E 010°44'0 0.0
2014-Nov-23 02:19N 59°55' E 010°44'0 0.0
2014-Nov-23 01:31N 59°55' E 010°44'0 0.0
2014-Nov-23 00:07N 59°55' E 010°44'0 0.0
2014-Nov-22 23:25N 59°55' E 010°44'0 0.0
2014-Nov-22 21:25N 59°55' E 010°44'0 0.0
2014-Nov-22 20:28N 59°55' E 010°44'0 0.0
2014-Nov-22 19:28N 59°55' E 010°44'0 0.0
2014-Nov-22 18:28N 59°55' E 010°44'0 0.0
2014-Nov-22 17:25N 59°55' E 010°44'0 0.0
2014-Nov-22 16:31N 59°55' E 010°44'0 0.0
2014-Nov-22 15:28N 59°55' E 010°44'0 0.0
2014-Nov-22 14:31N 59°55' E 010°44'0 0.0
2014-Nov-22 13:19N 59°55' E 010°44'0 0.0
2014-Nov-22 12:31N 59°55' E 010°44'0 0.0
2014-Nov-22 11:19N 59°55' E 010°44'0 0.0
2014-Nov-22 10:22N 59°55' E 010°44'0 0.0
2014-Nov-22 09:25N 59°55' E 010°44'0 0.0
2014-Nov-22 08:25N 59°55' E 010°44'0 0.0
2014-Nov-22 07:25N 59°55' E 010°44'0 0.0
2014-Nov-22 06:28N 59°55' E 010°44'0 0.0
2014-Nov-22 05:25N 59°55' E 010°44'0 0.0
2014-Nov-22 04:25N 59°55' E 010°44'0 0.0
2014-Nov-22 03:31N 59°55' E 010°44'0 0.0
2014-Nov-22 02:31N 59°55' E 010°44'0 0.0
2014-Nov-22 01:28N 59°55' E 010°44'0 0.0
2014-Nov-22 00:31N 59°55' E 010°44'0 0.0
2014-Nov-21 23:04N 59°55' E 010°44'0 0.0
2014-Nov-21 22:31N 59°55' E 010°44'0 0.0
2014-Nov-21 21:22N 59°55' E 010°44'0 0.0
2014-Nov-21 20:22N 59°55' E 010°44'0 0.0
2014-Nov-21 19:22N 59°55' E 010°44'0 0.0
2014-Nov-21 18:25N 59°55' E 010°44'0 0.0
2014-Nov-21 17:22N 59°55' E 010°44'2 2.6
2014-Nov-21 16:28N 59°53' E 010°40'0 0.1
2014-Nov-21 15:28N 59°53' E 010°40'0 0.3
2014-Nov-21 14:26N 59°53' E 010°41'2 1.8
2014-Nov-21 13:12N 59°55' E 010°44'0 0.0
2014-Nov-21 12:30N 59°55' E 010°44'0 0.0
2014-Nov-21 11:33N 59°55' E 010°44'0 0.1
2014-Nov-21 10:33N 59°55' E 010°44'0 0.0
2014-Nov-21 09:33N 59°54' E 010°44'0 0.0
2014-Nov-21 08:33N 59°55' E 010°44'1 1.1
2014-Nov-21 07:34N 59°54' E 010°42'0 0.1
2014-Nov-21 06:33N 59°54' E 010°42'1 1.3
2014-Nov-21 05:33N 59°55' E 010°44'0 0.0
2014-Nov-21 04:30N 59°55' E 010°44'0 0.0
2014-Nov-21 03:30N 59°55' E 010°44'0 0.0
2014-Nov-21 02:33N 59°55' E 010°44'0 0.0
2014-Nov-21 01:33N 59°55' E 010°44'0 0.0
2014-Nov-21 00:33N 59°55' E 010°44'0 0.0
2014-Nov-20 23:21N 59°55' E 010°44'0 0.0
2014-Nov-20 22:24N 59°55' E 010°44'0 0.0
2014-Nov-20 21:24N 59°55' E 010°44'0 0.0
2014-Nov-20 20:27N 59°55' E 010°44'0 0.0
2014-Nov-20 19:27N 59°55' E 010°44'0 0.0
2014-Nov-20 18:30N 59°55' E 010°44'0 0.1
2014-Nov-20 17:34N 59°54' E 010°44'0 0.1
2014-Nov-20 16:33N 59°55' E 010°44'0 0.0
2014-Nov-20 15:34N 59°55' E 010°44'0 0.1
2014-Nov-20 14:33N 59°55' E 010°44'0 0.0
2014-Nov-20 13:34N 59°55' E 010°44'0 0.0
2014-Nov-20 12:34N 59°54' E 010°44'0 0.0
2014-Nov-20 11:34N 59°55' E 010°44'1 0.6
2014-Nov-20 10:29N 59°54' E 010°43'0 0.0
2014-Nov-20 09:33N 59°54' E 010°43'1 0.6
2014-Nov-20 08:33N 59°55' E 010°44'0 0.1
2014-Nov-20 07:34N 59°55' E 010°44'0 0.0
2014-Nov-20 06:34N 59°55' E 010°44'0 0.0
2014-Nov-20 05:33N 59°55' E 010°44'3 0.2
2014-Nov-19 16:29N 59°53' E 010°40'0 0.1
2014-Nov-19 15:29N 59°53' E 010°40'0 0.2
2014-Nov-19 14:28N 59°53' E 010°40'2 2.7
2014-Nov-19 13:33N 59°55' E 010°44'0 0.0
2014-Nov-19 12:21N 59°55' E 010°44'0 0.0
2014-Nov-19 11:24N 59°55' E 010°44'0 0.2
2014-Nov-19 10:33N 59°54' E 010°44'0 0.1
2014-Nov-19 09:33N 59°55' E 010°44'0 0.1
2014-Nov-19 08:33N 59°54' E 010°44'1 1.2
2014-Nov-19 07:33N 59°54' E 010°42'0 0.0
2014-Nov-19 06:33N 59°54' E 010°42'1 1.2
2014-Nov-19 05:29N 59°55' E 010°44'  

Dump ship's entire track history